createdAt,value
2023-05-20T00:00:26.506Z,13.20
2023-05-20T00:04:48.388Z,15.10
2023-05-20T00:08:50.912Z,14.20
2023-05-20T00:12:53.404Z,15.50
2023-05-20T00:16:56.835Z,15.20
2023-05-20T00:21:00.610Z,13.50
2023-05-20T00:25:02.755Z,15.40
2023-05-20T00:29:05.065Z,14.70
2023-05-20T00:33:07.972Z,15.10
2023-05-20T00:37:12.148Z,15.50
2023-05-20T00:41:14.920Z,13.70
2023-05-20T00:45:18.954Z,12.70
2023-05-20T00:49:23.537Z,14.30
2023-05-20T00:53:26.727Z,13.60
2023-05-20T00:57:30.766Z,13.20
2023-05-20T01:01:34.162Z,13.10
2023-05-20T01:05:41.394Z,13.40
2023-05-20T01:09:45.374Z,13.30
2023-05-20T01:13:55.085Z,14.20
2023-05-20T01:18:02.408Z,13.50
2023-05-20T01:22:07.975Z,15.20
2023-05-20T01:26:14.504Z,12.00
2023-05-20T01:30:18.388Z,13.70
2023-05-20T01:34:25.940Z,13.50
2023-05-20T01:38:29.933Z,12.70
2023-05-20T01:42:34.922Z,13.30
2023-05-20T01:46:40.491Z,14.10
2023-05-20T01:50:44.490Z,13.60
2023-05-20T01:54:51.395Z,14.20
2023-05-20T01:58:56.363Z,13.90
2023-05-20T02:02:59.568Z,12.50
2023-05-20T02:07:03.010Z,12.20
2023-05-20T02:11:05.757Z,13.60
2023-05-20T02:15:08.472Z,13.70
2023-05-20T02:19:13.168Z,11.40
2023-05-20T02:23:15.780Z,12.40
2023-05-20T02:27:17.777Z,13.80
2023-05-20T02:31:22.319Z,13.00
2023-05-20T02:35:25.297Z,13.80
2023-05-20T02:39:31.332Z,12.10
2023-05-20T02:43:38.912Z,12.60
2023-05-20T02:47:41.451Z,12.50
2023-05-20T02:51:46.816Z,11.70
2023-05-20T02:55:50.687Z,12.40
2023-05-20T02:59:53.469Z,13.30
2023-05-20T03:03:56.152Z,11.20
2023-05-20T03:08:00.989Z,11.30
2023-05-20T03:12:03.602Z,12.00
2023-05-20T03:16:06.959Z,10.70
2023-05-20T03:20:13.606Z,10.60
2023-05-20T03:24:16.531Z,11.00
2023-05-20T03:28:19.568Z,11.20
2023-05-20T03:32:23.922Z,13.10
2023-05-20T03:36:27.805Z,10.20
2023-05-20T03:40:35.120Z,10.70
2023-05-20T03:45:06.882Z,9.20
2023-05-20T03:49:15.320Z,8.40
2023-05-20T03:53:20.258Z,8.30
2023-05-20T03:57:24.367Z,8.70
2023-05-20T04:01:26.966Z,8.10
2023-05-20T04:05:37.107Z,9.20
2023-05-20T04:09:46.065Z,8.30
2023-05-20T04:13:49.871Z,8.30
2023-05-20T04:17:55.491Z,7.70
2023-05-20T04:21:58.944Z,7.50
2023-05-20T04:26:08.991Z,7.20
2023-05-20T04:30:17.648Z,7.10
2023-05-20T04:34:26.985Z,6.80
2023-05-20T04:38:33.297Z,7.60
2023-05-20T04:42:37.283Z,7.00
2023-05-20T04:46:42.536Z,6.00
2023-05-20T04:50:45.652Z,5.20
2023-05-20T04:54:48.192Z,4.30
2023-05-20T04:58:51.414Z,4.40
2023-05-20T05:02:56.139Z,4.80
2023-05-20T05:06:59.841Z,5.20
2023-05-20T05:11:01.929Z,4.30
2023-05-20T05:15:04.597Z,3.60
2023-05-20T05:19:09.915Z,4.10
2023-05-20T05:23:14.511Z,3.40
2023-05-20T05:27:17.452Z,3.40
2023-05-20T05:31:19.379Z,3.40
2023-05-20T05:35:22.089Z,3.30
2023-05-20T05:39:25.773Z,3.70
2023-05-20T05:43:28.534Z,3.80
2023-05-20T05:47:32.526Z,3.10
2023-05-20T05:51:38.224Z,3.50
2023-05-20T05:55:42.318Z,3.00
2023-05-20T05:59:46.515Z,3.40
2023-05-20T06:03:52.442Z,3.60
2023-05-20T06:12:03.901Z,3.80
2023-05-20T06:16:08.380Z,3.30
2023-05-20T06:20:11.704Z,3.80
2023-05-20T06:24:16.113Z,3.40
2023-05-20T06:28:22.096Z,3.50
2023-05-20T06:32:25.062Z,3.80
2023-05-20T06:36:28.698Z,3.50
2023-05-20T06:40:32.467Z,3.40
2023-05-20T06:44:34.723Z,3.30
2023-05-20T06:48:50.106Z,3.80
2023-05-20T06:52:57.075Z,3.20
2023-05-20T06:57:02.840Z,3.50
2023-05-20T07:01:17.251Z,3.10
2023-05-20T07:05:24.783Z,3.30
2023-05-20T07:09:27.820Z,3.40
2023-05-20T07:13:31.009Z,3.00
2023-05-20T07:17:37.761Z,3.30
2023-05-20T07:21:41.564Z,3.00
2023-05-20T07:25:58.830Z,3.30
2023-05-20T07:30:01.902Z,3.20
2023-05-20T07:34:08.083Z,4.20
2023-05-20T07:38:13.353Z,3.40
2023-05-20T07:42:17.122Z,3.70
2023-05-20T07:46:22.751Z,3.60
2023-05-20T07:50:25.910Z,4.50
2023-05-20T07:54:28.653Z,3.10
2023-05-20T07:58:33.359Z,3.70
2023-05-20T08:02:36.930Z,3.20
2023-05-20T08:06:44.877Z,3.50
2023-05-20T08:10:53.660Z,3.70
2023-05-20T08:14:57.557Z,3.90
2023-05-20T08:19:00.312Z,3.70
2023-05-20T08:23:03.420Z,3.60
2023-05-20T08:27:07.751Z,3.30
2023-05-20T08:31:12.313Z,3.70
2023-05-20T08:35:16.636Z,3.90
2023-05-20T08:39:21.175Z,3.50
2023-05-20T08:43:25.857Z,3.60
2023-05-20T08:47:34.557Z,3.10
2023-05-20T08:51:38.551Z,4.10
2023-05-20T08:55:48.704Z,4.00
2023-05-20T08:59:52.499Z,4.10
2023-05-20T09:03:55.073Z,4.20
2023-05-20T09:08:11.502Z,3.70
2023-05-20T09:12:15.944Z,4.50
2023-05-20T09:16:24.361Z,4.90
2023-05-20T09:20:26.464Z,5.20
2023-05-20T09:24:28.765Z,4.80
2023-05-20T09:28:31.284Z,4.90
2023-05-20T09:32:33.669Z,5.40
2023-05-20T09:36:39.698Z,5.70
2023-05-20T09:40:46.232Z,6.10
2023-05-20T09:44:51.449Z,5.50
2023-05-20T09:48:53.805Z,6.60
2023-05-20T09:52:56.913Z,6.10
2023-05-20T09:57:00.272Z,5.80
2023-05-20T10:01:02.726Z,6.00
2023-05-20T10:05:11.871Z,6.00
2023-05-20T10:09:36.839Z,5.60
2023-05-20T10:14:09.773Z,5.20
2023-05-20T10:18:44.461Z,6.50
2023-05-20T10:23:03.126Z,5.40
2023-05-20T10:27:14.867Z,5.90
2023-05-20T10:31:54.430Z,5.70
2023-05-20T10:36:05.380Z,5.40
2023-05-20T10:40:15.252Z,5.60
2023-05-20T10:44:18.281Z,6.20
2023-05-20T10:48:34.981Z,5.60
2023-05-20T10:52:38.396Z,6.30
2023-05-20T10:56:52.483Z,5.30
2023-05-20T11:01:05.262Z,6.80
2023-05-20T11:05:15.078Z,5.40
2023-05-20T11:09:24.002Z,5.40
2023-05-20T11:13:27.809Z,5.80
2023-05-20T11:17:38.268Z,5.90
2023-05-20T11:21:48.604Z,6.70
2023-05-20T11:25:53.444Z,5.80
2023-05-20T11:29:57.354Z,5.60
2023-05-20T11:34:04.522Z,6.30
2023-05-20T11:42:14.440Z,6.00
2023-05-20T11:46:22.382Z,5.60
2023-05-20T11:50:25.066Z,6.20
2023-05-20T11:54:28.391Z,6.30
2023-05-20T11:58:33.394Z,6.20
2023-05-20T12:02:36.363Z,5.60
2023-05-20T12:06:42.401Z,6.10
2023-05-20T12:10:44.913Z,5.50
2023-05-20T12:14:47.991Z,6.70
2023-05-20T12:18:51.286Z,5.70
2023-05-20T12:22:54.122Z,4.90
2023-05-20T12:26:57.378Z,5.80
2023-05-20T12:30:59.385Z,5.50
2023-05-20T12:35:01.355Z,5.70
2023-05-20T12:39:04.986Z,5.70
2023-05-20T12:43:07.458Z,4.90
2023-05-20T12:47:10.400Z,5.60
2023-05-20T12:51:13.174Z,5.30
2023-05-20T12:55:16.147Z,5.00
2023-05-20T12:59:18.586Z,5.00
2023-05-20T13:03:20.819Z,5.30
2023-05-20T13:07:23.041Z,5.40
2023-05-20T13:11:25.118Z,4.90
2023-05-20T13:15:27.666Z,4.90
2023-05-20T13:19:30.165Z,5.50
2023-05-20T13:23:32.470Z,5.40
2023-05-20T13:27:34.954Z,5.20
2023-05-20T13:31:36.994Z,4.60
2023-05-20T13:35:39.180Z,4.50
2023-05-20T13:39:41.244Z,4.80
2023-05-20T13:43:43.326Z,4.60
2023-05-20T13:47:46.058Z,5.10
2023-05-20T13:51:48.419Z,5.40
2023-05-20T13:55:50.875Z,5.10
2023-05-20T13:59:53.113Z,5.30
2023-05-20T14:03:55.591Z,4.70
2023-05-20T14:07:59.063Z,4.70
2023-05-20T14:12:01.156Z,4.60
2023-05-20T14:16:03.887Z,4.30
2023-05-20T14:20:08.005Z,4.50
2023-05-20T14:24:11.293Z,4.60
2023-05-20T14:28:13.455Z,4.40
2023-05-20T14:32:15.452Z,4.70
2023-05-20T14:36:17.751Z,3.80
2023-05-20T14:40:20.233Z,4.30
2023-05-20T14:44:22.287Z,3.60
2023-05-20T14:48:24.286Z,3.60
2023-05-20T14:52:26.359Z,3.60
2023-05-20T14:56:28.459Z,3.80
2023-05-20T15:00:32.251Z,4.40
2023-05-20T15:04:34.764Z,4.00
2023-05-20T15:08:36.772Z,3.80
2023-05-20T15:12:39.965Z,4.10
2023-05-20T15:16:43.984Z,3.90
2023-05-20T15:20:46.082Z,4.10
2023-05-20T15:24:48.154Z,7.20
2023-05-20T15:28:50.405Z,4.90
2023-05-20T15:32:52.514Z,4.90
2023-05-20T15:36:54.582Z,4.30
2023-05-20T15:40:56.737Z,4.30
2023-05-20T15:44:59.473Z,5.10
2023-05-20T15:49:01.609Z,4.20
2023-05-20T15:53:08.265Z,3.50
2023-05-20T15:57:10.337Z,4.00
2023-05-20T16:01:12.401Z,5.00
2023-05-20T16:05:14.546Z,3.50
2023-05-20T16:09:16.629Z,3.90
2023-05-20T16:13:18.814Z,6.60
2023-05-20T16:17:21.388Z,4.40
2023-05-20T16:21:24.692Z,4.60
2023-05-20T16:25:26.713Z,3.80
2023-05-20T16:29:28.784Z,4.90
2023-05-20T16:33:30.950Z,4.30
2023-05-20T16:37:33.751Z,3.20
2023-05-20T16:41:35.996Z,3.30
2023-05-20T16:45:38.207Z,4.20
2023-05-20T16:49:40.849Z,3.70
2023-05-20T16:54:36.768Z,3.70
2023-05-20T16:58:38.855Z,5.30
2023-05-20T17:02:40.927Z,5.00
2023-05-20T17:06:43.143Z,4.20
2023-05-20T17:10:45.357Z,3.90
2023-05-20T17:14:47.443Z,3.90
2023-05-20T17:18:49.462Z,4.00
2023-05-20T17:22:53.906Z,3.40
2023-05-20T17:26:56.325Z,3.60
2023-05-20T17:30:59.393Z,3.10
2023-05-20T17:35:01.631Z,3.70
2023-05-20T17:39:04.385Z,3.70
2023-05-20T17:43:06.382Z,3.30
2023-05-20T17:47:09.970Z,2.90
2023-05-20T17:51:12.058Z,3.50
2023-05-20T17:55:14.217Z,3.50
2023-05-20T17:59:18.175Z,4.10
2023-05-20T18:03:20.546Z,3.10
2023-05-20T18:07:22.822Z,4.20
2023-05-20T18:11:27.218Z,2.90
2023-05-20T18:15:30.131Z,3.90
2023-05-20T18:19:33.412Z,3.60
2023-05-20T18:23:36.481Z,3.80
2023-05-20T18:27:40.740Z,3.40
2023-05-20T18:31:43.616Z,3.10
2023-05-20T18:35:46.191Z,3.30
2023-05-20T18:39:48.301Z,6.60
2023-05-20T18:43:50.495Z,7.50
2023-05-20T18:47:54.242Z,6.60
2023-05-20T18:51:56.419Z,4.30
2023-05-20T18:56:02.606Z,3.70
2023-05-20T19:00:10.246Z,3.90
2023-05-20T19:04:13.431Z,4.60
2023-05-20T19:08:15.465Z,4.80
2023-05-20T19:12:18.498Z,5.20
2023-05-20T19:16:23.014Z,10.90
2023-05-20T19:20:26.247Z,11.60
2023-05-20T19:24:31.393Z,11.40
2023-05-20T19:28:34.478Z,10.70
2023-05-20T19:32:36.873Z,8.60
2023-05-20T19:36:42.424Z,6.30
2023-05-20T19:40:45.175Z,5.30
2023-05-20T19:44:48.890Z,4.70
2023-05-20T19:48:50.950Z,4.50
2023-05-20T19:52:53.712Z,4.30
2023-05-20T19:56:56.561Z,6.90
2023-05-20T20:00:59.587Z,9.40
2023-05-20T20:05:04.257Z,12.40
2023-05-20T20:09:06.280Z,13.60
2023-05-20T20:13:08.885Z,11.30
2023-05-20T20:17:15.193Z,7.60
2023-05-20T20:21:18.118Z,5.80
2023-05-20T20:25:20.228Z,5.50
2023-05-20T20:29:22.399Z,5.50
2023-05-20T20:33:25.233Z,4.40
2023-05-20T20:37:27.227Z,4.60
2023-05-20T20:41:38.281Z,9.80
2023-05-20T20:45:41.365Z,6.70
2023-05-20T20:49:43.457Z,5.80
2023-05-20T20:53:47.886Z,6.10
2023-05-20T20:57:50.866Z,6.60
2023-05-20T21:01:54.361Z,6.70
2023-05-20T21:05:57.435Z,4.80
2023-05-20T21:10:00.018Z,6.20
2023-05-20T21:14:02.034Z,8.00
2023-05-20T21:18:04.825Z,8.70
2023-05-20T21:22:08.956Z,8.70
2023-05-20T21:26:11.677Z,11.70
2023-05-20T21:30:16.057Z,16.60
2023-05-20T21:34:19.482Z,9.30
2023-05-20T21:38:21.472Z,6.90
2023-05-20T21:42:24.511Z,6.10
2023-05-20T21:46:30.230Z,6.80
2023-05-20T21:50:32.424Z,5.50
2023-05-20T21:54:34.568Z,5.30
2023-05-20T21:58:40.461Z,5.10
2023-05-20T22:02:42.510Z,4.80
2023-05-20T22:06:44.706Z,4.90
2023-05-20T22:10:49.016Z,4.40
2023-05-20T22:14:51.779Z,5.00
2023-05-20T22:18:54.083Z,5.20
2023-05-20T22:22:56.345Z,5.20
2023-05-20T22:26:58.491Z,5.40
2023-05-20T22:31:02.191Z,5.00
2023-05-20T22:35:06.864Z,5.40
2023-05-20T22:39:12.801Z,4.60
2023-05-20T22:43:16.670Z,5.30
2023-05-20T22:47:20.803Z,5.60
2023-05-20T22:51:24.209Z,5.30
2023-05-20T22:55:26.918Z,4.70
2023-05-20T22:59:33.783Z,5.70
2023-05-20T23:03:36.909Z,5.30
2023-05-20T23:07:40.117Z,4.60
2023-05-20T23:11:43.096Z,4.90
2023-05-20T23:15:49.079Z,5.20
2023-05-20T23:19:54.520Z,5.20
2023-05-20T23:23:57.233Z,4.40
2023-05-20T23:28:01.109Z,4.40
2023-05-20T23:32:04.316Z,4.30
2023-05-20T23:36:09.403Z,4.80
2023-05-20T23:40:14.738Z,5.10
2023-05-20T23:44:17.725Z,4.20
2023-05-20T23:48:21.568Z,4.90
2023-05-20T23:52:26.372Z,4.50
2023-05-20T23:56:28.781Z,4.70
